Home > Products > Valid Products > TAF

000
FTUS44 KFWD 301133 CCA
TAFACT
TAF COR
KACT 301133Z 3012/3112 18012KT P6SM SCT018
     FM301230 16008KT P6SM BKN018
     FM301600 18008KT P6SM BKN025
     FM301900 18008KT P6SM SCT035 BKN250
     FM302300 19007KT P6SM OVC250
     FM310900 18008KT P6SM BKN018=



000
FTUS44 KFWD 301133 CCA
TAFACT
TAF COR
KACT 301133Z 3012/3112 18012KT P6SM SCT018
     FM301230 16008KT P6SM BKN018
     FM301600 18008KT P6SM BKN025
     FM301900 18008KT P6SM SCT035 BKN250
     FM302300 19007KT P6SM OVC250
     FM310900 18008KT P6SM BKN018=



000
FTUS44 KFWD 301120
TAFFTW
TAF
KFTW 301120Z 3012/3112 05006KT P6SM FEW018
     FM301700 10008KT P6SM BKN025
     FM302000 13008KT P6SM OVC035
     FM310100 15007KT P6SM OVC050=



000
FTUS44 KFWD 301120
TAFDFW
TAF
KDFW 301120Z 3012/3118 10006KT P6SM FEW018
     FM301400 11008KT P6SM BKN018
     FM301700 12008KT P6SM BKN025
     FM301900 13008KT P6SM OVC035
     FM310100 15007KT P6SM OVC050
     FM311200 15006KT P6SM OVC025=



000
FTUS44 KFWD 301120
TAFACT
TAF
KACT 301120Z 3012/3112 18012KT P6SM SCT018
     FM301200 16008KT P6SM BKN018
     FM301600 18008KT P6SM BKN025
     FM301900 18008KT P6SM SCT035 BKN250
     FM302300 19007KT P6SM OVC250
     FM310900 18008KT P6SM BKN018=



000
FTUS44 KFWD 301120
TAFDFW
TAF
KDFW 301120Z 3012/3118 10006KT P6SM FEW018
     FM301400 11008KT P6SM BKN018
     FM301700 12008KT P6SM BKN025
     FM301900 13008KT P6SM OVC035
     FM310100 15007KT P6SM OVC050
     FM311200 15006KT P6SM OVC025=



000
FTUS44 KFWD 301120
TAFFTW
TAF
KFTW 301120Z 3012/3112 05006KT P6SM FEW018
     FM301700 10008KT P6SM BKN025
     FM302000 13008KT P6SM OVC035
     FM310100 15007KT P6SM OVC050=



000
FTUS44 KFWD 301120
TAFACT
TAF
KACT 301120Z 3012/3112 18012KT P6SM SCT018
     FM301200 16008KT P6SM BKN018
     FM301600 18008KT P6SM BKN025
     FM301900 18008KT P6SM SCT035 BKN250
     FM302300 19007KT P6SM OVC250
     FM310900 18008KT P6SM BKN018=



000
FTUS44 KFWD 301021 AAB
TAFACT
TAF AMD
KACT 301021Z 3010/3106 18012KT P6SM SCT015
     FM301200 16008KT P6SM BKN015
     FM301900 13008KT P6SM OVC035
     FM302300 14007KT P6SM OVC250=



000
FTUS44 KFWD 300915 AAA
TAFFTW
TAF AMD
KFTW 300915Z 3009/3106 10006KT P6SM FEW080
     FM301400 12008KT P6SM BKN015
     FM301900 13008KT P6SM OVC035
     FM310100 14007KT P6SM OVC050=



000
FTUS44 KFWD 300915 AAA
TAFDFW
TAF AMD
KDFW 300915Z 3009/3112 08006KT P6SM SCT080
     FM301400 12008KT P6SM BKN015
     FM301900 13008KT P6SM OVC035
     FM310100 14007KT P6SM OVC050
     FM311000 15006KT P6SM OVC020=



000
FTUS44 KFWD 300915 AAA
TAFACT
TAF AMD
KACT 300915Z 3009/3106 18012KT P6SM SKC
     FM301000 16008KT P6SM BKN015
     FM301900 13008KT P6SM OVC035
     FM302300 14007KT P6SM OVC250=



000
FTUS44 KFWD 300915 AAA
TAFDFW
TAF AMD
KDFW 300915Z 3009/3112 08006KT P6SM SCT080
     FM301400 12008KT P6SM BKN015
     FM301900 13008KT P6SM OVC035
     FM310100 14007KT P6SM OVC050
     FM311000 15006KT P6SM OVC020=



000
FTUS44 KFWD 300915 AAA
TAFFTW
TAF AMD
KFTW 300915Z 3009/3106 10006KT P6SM FEW080
     FM301400 12008KT P6SM BKN015
     FM301900 13008KT P6SM OVC035
     FM310100 14007KT P6SM OVC050=



000
FTUS44 KFWD 300915 AAA
TAFACT
TAF AMD
KACT 300915Z 3009/3106 18012KT P6SM SKC
     FM301000 16008KT P6SM BKN015
     FM301900 13008KT P6SM OVC035
     FM302300 14007KT P6SM OVC250=



000
FTUS44 KFWD 300520
TAFFTW
TAF
KFTW 300520Z 3006/3106 10006KT P6SM FEW080
     FM301400 12008KT P6SM BKN015
     FM301900 13008KT P6SM OVC035
     FM310100 14007KT P6SM OVC050=



000
FTUS44 KFWD 300520
TAFACT
TAF
KACT 300520Z 3006/3106 18012KT P6SM SKC
     FM301000 16008KT P6SM BKN015
     FM301900 13008KT P6SM OVC035
     FM302300 14007KT P6SM OVC250=



000
FTUS44 KFWD 300520
TAFDFW
TAF
KDFW 300520Z 3006/3112 08006KT P6SM SCT080
     FM301400 12008KT P6SM BKN015
     FM301900 13008KT P6SM OVC035
     FM310100 14007KT P6SM OVC050
     FM311000 15006KT P6SM OVC020=



000
FTUS44 KFWD 300520
TAFDFW
TAF
KDFW 300520Z 3006/3112 08006KT P6SM SCT080
     FM301400 12008KT P6SM BKN015
     FM301900 13008KT P6SM OVC035
     FM310100 14007KT P6SM OVC050
     FM311000 15006KT P6SM OVC020=



000
FTUS44 KFWD 300520
TAFFTW
TAF
KFTW 300520Z 3006/3106 10006KT P6SM FEW080
     FM301400 12008KT P6SM BKN015
     FM301900 13008KT P6SM OVC035
     FM310100 14007KT P6SM OVC050=



000
FTUS44 KFWD 300520
TAFACT
TAF
KACT 300520Z 3006/3106 18012KT P6SM SKC
     FM301000 16008KT P6SM BKN015
     FM301900 13008KT P6SM OVC035
     FM302300 14007KT P6SM OVC250=



000
FTUS44 KFWD 300253 AAB
TAFDFW
TAF AMD
KDFW 300253Z 3003/3106 15010KT P6SM SCT060 BKN100
     FM300500 03006KT P6SM SCT060 BKN250
     FM301400 06008KT P6SM BKN015
     FM301900 13008KT P6SM OVC035
     FM310100 14007KT P6SM OVC050=



000
FTUS44 KFWD 300253 AAB
TAFFTW
TAF AMD
KFTW 300253Z 3003/3024 19010KT P6SM SCT080 SCT250
     FM300400 03008KT P6SM SCT080
     FM301400 08008KT P6SM BKN015
     FM301900 13008KT P6SM OVC035=



000
FTUS44 KFWD 300253 AAA
TAFACT
TAF AMD
KACT 300253Z 3003/3024 18015KT P6SM SKC
     FM300600 16009KT P6SM SCT050
     FM301000 16008KT P6SM BKN015
     FM301900 13008KT P6SM OVC035=



000
FTUS44 KFWD 300253 AAA
TAFACT
TAF AMD
KACT 300253Z 3003/3024 18015KT P6SM SKC
     FM300600 16009KT P6SM SCT050
     FM301000 16008KT P6SM BKN015
     FM301900 13008KT P6SM OVC035=



000
FTUS44 KFWD 300205 AAA
TAFFTW
TAF AMD
KFTW 300205Z 3002/3024 19010KT P6SM SCT080 SCT250
     FM300300 02008KT P6SM SCT080
     FM301400 08008KT P6SM BKN015
     FM301900 13008KT P6SM OVC035=



000
FTUS44 KFWD 300157 AAA
TAFDFW
TAF AMD
KDFW 300157Z 3002/3106 15010KT P6SM SCT060 BKN100
     FM300400 03008KT P6SM SCT060 BKN250
     FM301400 06008KT P6SM BKN015
     FM301900 13008KT P6SM OVC035
     FM310100 14007KT P6SM OVC050=



000
FTUS44 KFWD 300157 AAA
TAFDFW
TAF AMD
KDFW 300157Z 3002/3106 15010KT P6SM SCT060 BKN100
     FM300400 03008KT P6SM SCT060 BKN250
     FM301400 06008KT P6SM BKN015
     FM301900 13008KT P6SM OVC035
     FM310100 14007KT P6SM OVC050=



000
FTUS44 KFWD 292339
TAFACT
TAF
KACT 292339Z 3000/3024 18017KT P6SM SKC
     FM300000 17015KT P6SM SCT250
     FM300600 16009KT P6SM SCT050
     FM301000 16008KT P6SM BKN015
     FM301900 13008KT P6SM OVC035=



000
FTUS44 KFWD 292339
TAFFTW
TAF
KFTW 292339Z 3000/3024 16014KT P6SM SCT060 SCT250
     FM300130 34014KT P6SM VCTS SCT050CB BKN250
     FM300400 02008KT P6SM SCT060
     FM301400 08008KT P6SM BKN015
     FM301900 13008KT P6SM OVC035=



000
FTUS44 KFWD 292339
TAFFTW
TAF
KFTW 292339Z 3000/3024 16014KT P6SM SCT060 SCT250
     FM300130 34014KT P6SM VCTS SCT050CB BKN250
     FM300400 02008KT P6SM SCT060
     FM301400 08008KT P6SM BKN015
     FM301900 13008KT P6SM OVC035=



000
FTUS44 KFWD 292339
TAFDFW
TAF
KDFW 292339Z 3000/3106 16014KT P6SM SCT060 SCT250
     FM300200 34014KT P6SM VCTS SCT050CB BKN250
      TEMPO 3002/3004 -TSRA BKN040CB
     FM300400 02008KT P6SM SCT060
     FM301400 08008KT P6SM BKN015
     FM301900 13008KT P6SM OVC035
     FM310100 14007KT P6SM OVC050=



000
FTUS44 KFWD 292339
TAFACT
TAF
KACT 292339Z 3000/3024 18017KT P6SM SKC
     FM300000 17015KT P6SM SCT250
     FM300600 16009KT P6SM SCT050
     FM301000 16008KT P6SM BKN015
     FM301900 13008KT P6SM OVC035=



000
FTUS44 KFWD 292339
TAFDFW
TAF
KDFW 292339Z 3000/3106 16014KT P6SM SCT060 SCT250
     FM300200 34014KT P6SM VCTS SCT050CB BKN250
      TEMPO 3002/3004 -TSRA BKN040CB
     FM300400 02008KT P6SM SCT060
     FM301400 08008KT P6SM BKN015
     FM301900 13008KT P6SM OVC035
     FM310100 14007KT P6SM OVC050=



000
FTUS44 KFWD 292051 AAA
TAFDFW
TAF AMD
KDFW 292051Z 2921/3024 18017G27KT P6SM FEW250
     FM300000 16014KT P6SM SCT060 SCT250
     FM300200 14012KT P6SM VCTS SCT050CB BKN250
     FM300300 05007KT P6SM BKN015
     FM301600 08008KT P6SM BKN030=



000
FTUS44 KFWD 292051 AAA
TAFACT
TAF AMD
KACT 292051Z 2921/3018 18019G24KT P6SM SKC
     FM300000 17015KT P6SM SCT250
     FM300600 16009KT P6SM BKN015=



000
FTUS44 KFWD 292051 AAA
TAFFTW
TAF AMD
KFTW 292051Z 2921/3018 18017G27KT P6SM FEW250
     FM300000 16014KT P6SM SCT060 SCT250
     FM300200 14012KT P6SM VCTS SCT050CB BKN250
     FM300300 05007KT P6SM BKN015
     FM301600 08008KT P6SM BKN030=



000
FTUS44 KFWD 292051 AAA
TAFDFW
TAF AMD
KDFW 292051Z 2921/3024 18017G27KT P6SM FEW250
     FM300000 16014KT P6SM SCT060 SCT250
     FM300200 14012KT P6SM VCTS SCT050CB BKN250
     FM300300 05007KT P6SM BKN015
     FM301600 08008KT P6SM BKN030=



000
FTUS44 KFWD 292051 AAA
TAFFTW
TAF AMD
KFTW 292051Z 2921/3018 18017G27KT P6SM FEW250
     FM300000 16014KT P6SM SCT060 SCT250
     FM300200 14012KT P6SM VCTS SCT050CB BKN250
     FM300300 05007KT P6SM BKN015
     FM301600 08008KT P6SM BKN030=



000
FTUS44 KFWD 292051 AAA
TAFACT
TAF AMD
KACT 292051Z 2921/3018 18019G24KT P6SM SKC
     FM300000 17015KT P6SM SCT250
     FM300600 16009KT P6SM BKN015=



000
FTUS44 KFWD 291725
TAFACT
TAF
KACT 291725Z 2918/3018 18017G28KT P6SM SKC
     FM300000 17015KT P6SM SCT250
     FM300600 16009KT P6SM BKN015=



000
FTUS44 KFWD 291725
TAFFTW
TAF
KFTW 291725Z 2918/3018 19017G28KT P6SM SKC
     FM300000 15008KT P6SM SCT060 BKN250
     FM301000 05007KT P6SM BKN015
     FM301600 08008KT P6SM BKN030=



000
FTUS44 KFWD 291725
TAFDFW
TAF
KDFW 291725Z 2918/3024 19017G28KT P6SM SKC
     FM300000 15008KT P6SM SCT060 BKN250
     FM301000 05007KT P6SM BKN015
     FM301600 08008KT P6SM BKN030=



000
FTUS44 KFWD 291725
TAFDFW
TAF
KDFW 291725Z 2918/3024 19017G28KT P6SM SKC
     FM300000 15008KT P6SM SCT060 BKN250
     FM301000 05007KT P6SM BKN015
     FM301600 08008KT P6SM BKN030=



000
FTUS44 KFWD 291725
TAFACT
TAF
KACT 291725Z 2918/3018 18017G28KT P6SM SKC
     FM300000 17015KT P6SM SCT250
     FM300600 16009KT P6SM BKN015=



000
FTUS44 KFWD 291725
TAFFTW
TAF
KFTW 291725Z 2918/3018 19017G28KT P6SM SKC
     FM300000 15008KT P6SM SCT060 BKN250
     FM301000 05007KT P6SM BKN015
     FM301600 08008KT P6SM BKN030=



000
FTUS44 KFWD 291500 AAA
TAFFTW
TAF AMD
KFTW 291500Z 2915/3012 15011KT P6SM SKC
     FM291600 19016G26KT P6SM SKC
     FM300000 15008KT P6SM SCT060 BKN250
     FM300600 09006KT P6SM SCT060 BKN250
     FM301000 05007KT P6SM BKN015=



000
FTUS44 KFWD 291500 AAA
TAFDFW
TAF AMD
KDFW 291500Z 2915/3018 15011KT P6SM SKC
     FM291600 19017G28KT P6SM SKC
     FM300000 15008KT P6SM SCT060 BKN250
     FM300600 09006KT P6SM SCT060 BKN250
     FM301000 05007KT P6SM BKN015
     FM301600 08008KT P6SM BKN030=



000
FTUS44 KFWD 291500 AAA
TAFACT
TAF AMD
KACT 291500Z 2915/3012 15011KT P6SM SKC
     FM291600 18017G28KT P6SM SKC
     FM300000 17015KT P6SM SCT250
     FM300600 16009KT P6SM BKN015=



000
FTUS44 KFWD 291137
TAFDFW
TAF
KDFW 291137Z 2912/3018 15011KT P6SM SKC
     FM291600 19017G28KT P6SM SKC
     FM300000 15008KT P6SM SCT060 BKN250
     FM300600 09006KT P6SM SCT060 BKN250
     FM301000 05007KT P6SM BKN015
     FM301600 08008KT P6SM BKN030=



000
FTUS44 KFWD 291137
TAFDFW
TAF
KDFW 291137Z 2912/3018 15011KT P6SM SKC
     FM291600 19017G28KT P6SM SKC
     FM300000 15008KT P6SM SCT060 BKN250
     FM300600 09006KT P6SM SCT060 BKN250
     FM301000 05007KT P6SM BKN015
     FM301600 08008KT P6SM BKN030=



000
FTUS44 KFWD 291137
TAFACT
TAF
KACT 291137Z 2912/3012 15011KT P6SM SKC
     FM291600 18017G28KT P6SM SKC
     FM300000 17015KT P6SM SCT250
     FM300600 16009KT P6SM BKN015=



000
FTUS44 KFWD 291137
TAFFTW
TAF
KFTW 291137Z 2912/3012 15011KT P6SM SKC
     FM291600 19016G26KT P6SM SKC
     FM300000 15008KT P6SM SCT060 BKN250
     FM300600 09006KT P6SM SCT060 BKN250
     FM301000 05007KT P6SM BKN015=



000
FTUS44 KFWD 291137
TAFFTW
TAF
KFTW 291137Z 2912/3012 15011KT P6SM SKC
     FM291600 19016G26KT P6SM SKC
     FM300000 15008KT P6SM SCT060 BKN250
     FM300600 09006KT P6SM SCT060 BKN250
     FM301000 05007KT P6SM BKN015=



000
FTUS44 KFWD 291137
TAFACT
TAF
KACT 291137Z 2912/3012 15011KT P6SM SKC
     FM291600 18017G28KT P6SM SKC
     FM300000 17015KT P6SM SCT250
     FM300600 16009KT P6SM BKN015=



000
FTUS44 KFWD 290914 AAA
TAFACT
TAF AMD
KACT 290914Z 2909/3006 17010KT P6SM SKC
     FM291500 17018G30KT P6SM SKC
     FM300000 16008KT P6SM SCT300=



000
FTUS44 KFWD 290914 AAA
TAFACT
TAF AMD
KACT 290914Z 2909/3006 17010KT P6SM SKC
     FM291500 17018G30KT P6SM SKC
     FM300000 16008KT P6SM SCT300=



000
FTUS44 KFWD 290914 AAA
TAFFTW
TAF AMD
KFTW 290914Z 2909/3006 15011KT P6SM SKC
     FM291500 19016G27KT P6SM SKC
     FM300000 16008KT P6SM BKN300=



000
FTUS44 KFWD 290914 AAA
TAFDFW
TAF AMD
KDFW 290914Z 2909/3012 15011KT P6SM SKC
     FM291500 19017G28KT P6SM SKC
     FM300000 15008KT P6SM BKN300
     FM301000 13007KT P6SM BKN015=



000
FTUS44 KFWD 290914 AAA
TAFDFW
TAF AMD
KDFW 290914Z 2909/3012 15011KT P6SM SKC
     FM291500 19017G28KT P6SM SKC
     FM300000 15008KT P6SM BKN300
     FM301000 13007KT P6SM BKN015=



000
FTUS44 KFWD 290914 AAA
TAFFTW
TAF AMD
KFTW 290914Z 2909/3006 15011KT P6SM SKC
     FM291500 19016G27KT P6SM SKC
     FM300000 16008KT P6SM BKN300=



000
FTUS44 KFWD 290524
TAFACT
TAF
KACT 290524Z 2906/3006 17010KT P6SM SKC
     FM291500 17018G30KT P6SM SKC
     FM300000 16008KT P6SM SCT300=



000
FTUS44 KFWD 290524
TAFFTW
TAF
KFTW 290524Z 2906/3006 15011KT P6SM SKC
     FM291500 19016G27KT P6SM SKC
     FM300000 16008KT P6SM BKN300=



000
FTUS44 KFWD 290524
TAFDFW
TAF
KDFW 290524Z 2906/3012 15011KT P6SM SKC
     FM291500 19017G28KT P6SM SKC
     FM300000 15008KT P6SM BKN300
     FM301000 13007KT P6SM BKN015=



000
FTUS44 KFWD 290524
TAFFTW
TAF
KFTW 290524Z 2906/3006 15011KT P6SM SKC
     FM291500 19016G27KT P6SM SKC
     FM300000 16008KT P6SM BKN300=



000
FTUS44 KFWD 290524
TAFDFW
TAF
KDFW 290524Z 2906/3012 15011KT P6SM SKC
     FM291500 19017G28KT P6SM SKC
     FM300000 15008KT P6SM BKN300
     FM301000 13007KT P6SM BKN015=



000
FTUS44 KFWD 290524
TAFACT
TAF
KACT 290524Z 2906/3006 17010KT P6SM SKC
     FM291500 17018G30KT P6SM SKC
     FM300000 16008KT P6SM SCT300=



000
FTUS44 KFWD 290256 AAA
TAFACT
TAF AMD
KACT 290256Z 2903/2924 17010KT P6SM SKC
     FM291500 17018G30KT P6SM SKC=



000
FTUS44 KFWD 290256 AAA
TAFFTW
TAF AMD
KFTW 290256Z 2903/2924 15011KT P6SM SKC
     FM291500 19016G27KT P6SM SKC=



000
FTUS44 KFWD 290256 AAA
TAFFTW
TAF AMD
KFTW 290256Z 2903/2924 15011KT P6SM SKC
     FM291500 19016G27KT P6SM SKC=



000
FTUS44 KFWD 290256 AAA
TAFDFW
TAF AMD
KDFW 290256Z 2903/3006 15011KT P6SM SKC
     FM291500 19017G28KT P6SM SKC
     FM300000 16008KT P6SM BKN300=



000
FTUS44 KFWD 290256 AAA
TAFACT
TAF AMD
KACT 290256Z 2903/2924 17010KT P6SM SKC
     FM291500 17018G30KT P6SM SKC=



000
FTUS44 KFWD 290256 AAA
TAFDFW
TAF AMD
KDFW 290256Z 2903/3006 15011KT P6SM SKC
     FM291500 19017G28KT P6SM SKC
     FM300000 16008KT P6SM BKN300=



000
FTUS44 KFWD 282320
TAFFTW
TAF
KFTW 282320Z 2900/2924 16008KT P6SM SKC
     FM291500 19016G27KT P6SM SKC=



000
FTUS44 KFWD 282320
TAFDFW
TAF
KDFW 282320Z 2900/3006 16008KT P6SM SKC
     FM291500 19017G28KT P6SM SKC
     FM300000 16008KT P6SM BKN300=



000
FTUS44 KFWD 282320
TAFACT
TAF
KACT 282320Z 2900/2924 18010KT P6SM SKC
     FM291500 17018G30KT P6SM SKC=



000
FTUS44 KFWD 282054 AAA
TAFFTW
TAF AMD
KFTW 282054Z 2821/2918 17009KT P6SM SKC
     FM291500 18012KT P6SM SKC=



000
FTUS44 KFWD 282054 AAA
TAFACT
TAF AMD
KACT 282054Z 2821/2918 18009KT P6SM SKC
     FM290500 15005KT P6SM SKC
     FM291500 17012KT P6SM SKC=



000
FTUS44 KFWD 282054 AAA
TAFDFW
TAF AMD
KDFW 282054Z 2821/2924 17008KT P6SM SKC
     FM291500 19012KT P6SM SKC=



000
FTUS44 KFWD 281726
TAFDFW
TAF
KDFW 281726Z 2818/2924 19011KT P6SM SKC
     FM290700 15008KT P6SM SKC
     FM291500 19012KT P6SM SKC=



000
FTUS44 KFWD 281726
TAFFTW
TAF
KFTW 281726Z 2818/2918 19011KT P6SM SKC
     FM290700 15007KT P6SM SKC
     FM291500 18012KT P6SM SKC=



000
FTUS44 KFWD 281726
TAFACT
TAF
KACT 281726Z 2818/2918 18011KT P6SM SKC
     FM290500 15005KT P6SM SKC
     FM291500 17012KT P6SM SKC=



000
FTUS44 KFWD 281726
TAFACT
TAF
KACT 281726Z 2818/2918 18011KT P6SM SKC
     FM290500 15005KT P6SM SKC
     FM291500 17012KT P6SM SKC=



000
FTUS44 KFWD 281726
TAFFTW
TAF
KFTW 281726Z 2818/2918 19011KT P6SM SKC
     FM290700 15007KT P6SM SKC
     FM291500 18012KT P6SM SKC=



000
FTUS44 KFWD 281726
TAFDFW
TAF
KDFW 281726Z 2818/2924 19011KT P6SM SKC
     FM290700 15008KT P6SM SKC
     FM291500 19012KT P6SM SKC=



000
FTUS44 KFWD 281454 AAB
TAFACT
TAF AMD
KACT 281454Z 2815/2912 19012KT P6SM SKC=



000
FTUS44 KFWD 281454 AAB
TAFDFW
TAF AMD
KDFW 281454Z 2815/2918 19012KT P6SM SKC
     FM290700 16007KT P6SM SKC
     FM291500 20012KT P6SM SKC=



000
FTUS44 KFWD 281454 AAB
TAFDFW
TAF AMD
KDFW 281454Z 2815/2918 19012KT P6SM SKC
     FM290700 16007KT P6SM SKC
     FM291500 20012KT P6SM SKC=



000
FTUS44 KFWD 281454 AAB
TAFACT
TAF AMD
KACT 281454Z 2815/2912 19012KT P6SM SKC=



000
FTUS44 KFWD 281454 AAB
TAFFTW
TAF AMD
KFTW 281454Z 2815/2912 19012KT P6SM SKC=



000
FTUS44 KFWD 281454 AAB
TAFFTW
TAF AMD
KFTW 281454Z 2815/2912 19012KT P6SM SKC=



000
FTUS44 KFWD 281141 AAA
TAFFTW
TAF AMD
KFTW 281141Z 2812/2824 16007KT P6SM SCT150 SCT300
     FM281800 19012KT P6SM SCT120=



000
FTUS44 KFWD 281141 AAA
TAFFTW
TAF AMD
KFTW 281141Z 2812/2824 16007KT P6SM SCT150 SCT300
     FM281800 19012KT P6SM SCT120=



000
FTUS44 KFWD 281140 AAA
TAFDFW
TAF AMD
KDFW 281140Z 2812/2906 16007KT P6SM SCT150 SCT300
     FM281800 19012KT P6SM SCT120=



000
FTUS44 KFWD 281140 AAA
TAFDFW
TAF AMD
KDFW 281140Z 2812/2906 16007KT P6SM SCT150 SCT300
     FM281800 19012KT P6SM SCT120=



000
FTUS44 KFWD 281140 AAA
TAFACT
TAF AMD
KACT 281140Z 2812/2824 13005KT P6SM BKN300
     FM281500 19013KT P6SM SCT120 SCT300=



000
FTUS44 KFWD 281140 AAA
TAFACT
TAF AMD
KACT 281140Z 2812/2824 13005KT P6SM BKN300
     FM281500 19013KT P6SM SCT120 SCT300=



000
FTUS44 KFWD 280250 AAA
TAFDFW
TAF AMD
KDFW 280250Z 2803/2906 06006KT P6SM BKN300
     FM280600 11006KT P6SM BKN300
     FM281200 16007KT P6SM SCT150 SCT300
     FM281800 19012KT P6SM SCT120=



000
FTUS44 KFWD 280250 AAA
TAFFTW
TAF AMD
KFTW 280250Z 2803/2824 06006KT P6SM BKN300
     FM280600 11006KT P6SM BKN300
     FM281200 16007KT P6SM SCT150 SCT300
     FM281800 19012KT P6SM SCT120=



000
FTUS44 KFWD 280250 AAA
TAFFTW
TAF AMD
KFTW 280250Z 2803/2824 06006KT P6SM BKN300
     FM280600 11006KT P6SM BKN300
     FM281200 16007KT P6SM SCT150 SCT300
     FM281800 19012KT P6SM SCT120=



000
FTUS44 KFWD 280250 AAA
TAFDFW
TAF AMD
KDFW 280250Z 2803/2906 06006KT P6SM BKN300
     FM280600 11006KT P6SM BKN300
     FM281200 16007KT P6SM SCT150 SCT300
     FM281800 19012KT P6SM SCT120=



000
FTUS44 KFWD 280250 AAA
TAFACT
TAF AMD
KACT 280250Z 2803/2824 08006KT P6SM FEW300
     FM280800 13005KT P6SM BKN300
     FM281500 19013KT P6SM SCT120 SCT300=



000
FTUS44 KFWD 280250 AAA
TAFACT
TAF AMD
KACT 280250Z 2803/2824 08006KT P6SM FEW300
     FM280800 13005KT P6SM BKN300
     FM281500 19013KT P6SM SCT120 SCT300=



000
FTUS44 KFWD 272336
TAFFTW
TAF
KFTW 272336Z 2800/2824 04005KT P6SM BKN300
     FM280600 11006KT P6SM BKN300
     FM281200 16007KT P6SM SCT150 SCT300
     FM281800 19012KT P6SM SCT120=



000
FTUS44 KFWD 272336
TAFACT
TAF
KACT 272336Z 2800/2824 03006KT P6SM SCT300
     FM280800 12005KT P6SM BKN300
     FM281500 19013KT P6SM SCT120 SCT300=



000
FTUS44 KFWD 272336
TAFACT
TAF
KACT 272336Z 2800/2824 03006KT P6SM SCT300
     FM280800 12005KT P6SM BKN300
     FM281500 19013KT P6SM SCT120 SCT300=



000
FTUS44 KFWD 272336
TAFFTW
TAF
KFTW 272336Z 2800/2824 04005KT P6SM BKN300
     FM280600 11006KT P6SM BKN300
     FM281200 16007KT P6SM SCT150 SCT300
     FM281800 19012KT P6SM SCT120=



000
FTUS44 KFWD 272336
TAFDFW
TAF
KDFW 272336Z 2800/2906 04005KT P6SM BKN300
     FM280600 11006KT P6SM BKN300
     FM281200 16007KT P6SM SCT150 SCT300
     FM281800 19012KT P6SM SCT120=



000
FTUS44 KFWD 272336
TAFDFW
TAF
KDFW 272336Z 2800/2906 04005KT P6SM BKN300
     FM280600 11006KT P6SM BKN300
     FM281200 16007KT P6SM SCT150 SCT300
     FM281800 19012KT P6SM SCT120=



000
FTUS44 KFWD 272320
TAFDFW
TAF
KDFW 272320Z 2800/2906 04005KT P6SM BKN300
     FM280600 11006KT P6SM BKN300
     FM281200 16007KT P6SM SCT150 SCT300
     FM281800 19012KT P6SM SCT120=



000
FTUS44 KFWD 272320
TAFACT
TAF
KACT 272320Z 2800/2824 03006KT P6SM SCT300
     FM280800 12005KT P6SM BKN300
     FM281500 19013KT P6SM SCT120 SCT300=



000
FTUS44 KFWD 272320
TAFFTW
TAF
KFTW 272320Z 2800/2824 04005KT P6SM BKN300
     FM280600 11006KT P6SM BKN300
     FM281200 16007KT P6SM SCT150 SCT300
     FM281800 19012KT P6SM SCT120=



000
FTUS44 KFWD 272320
TAFFTW
TAF
KFTW 272320Z 2800/2824 04005KT P6SM BKN300
     FM280600 11006KT P6SM BKN300
     FM281200 16007KT P6SM SCT150 SCT300
     FM281800 19012KT P6SM SCT120=



000
FTUS44 KFWD 272320
TAFDFW
TAF
KDFW 272320Z 2800/2906 04005KT P6SM BKN300
     FM280600 11006KT P6SM BKN300
     FM281200 16007KT P6SM SCT150 SCT300
     FM281800 19012KT P6SM SCT120=



000
FTUS44 KFWD 272320
TAFACT
TAF
KACT 272320Z 2800/2824 03006KT P6SM SCT300
     FM280800 12005KT P6SM BKN300
     FM281500 19013KT P6SM SCT120 SCT300=



000
FTUS44 KFWD 272100 AAB
TAFACT
TAF AMD
KACT 272100Z 2721/2818 01014KT P6SM SKC
     FM280100 05006KT P6SM SKC
     FM280600 12005KT P6SM SKC
     FM281100 16005KT P6SM FEW120
     FM281500 19011KT P6SM SCT120=



000
FTUS44 KFWD 272100 AAA
TAFFTW
TAF AMD
KFTW 272100Z 2721/2818 01011KT P6SM FEW150 SCT250
     FM272300 03007KT P6SM FEW250
     FM280500 10005KT P6SM SKC
     FM281000 17007KT P6SM SCT120
     FM281400 19012KT P6SM SCT120=



000
FTUS44 KFWD 272100 AAA
TAFDFW
TAF AMD
KDFW 272100Z 2721/2824 03013KT P6SM FEW150 SCT250
     FM272300 04007KT P6SM FEW250
     FM280500 10005KT P6SM SKC
     FM281000 17007KT P6SM SCT120
     FM281400 19012KT P6SM SCT120=



000
FTUS44 KFWD 271858 AAA
TAFACT
TAF AMD
KACT 271858Z 2719/2818 36011KT P6SM FEW250
     FM280100 04007KT P6SM SCT250
     FM280600 12005KT P6SM SCT250
     FM281100 16005KT P6SM SCT120
     FM281500 19011KT P6SM SCT120=



000
FTUS44 KFWD 271858 AAA
TAFACT
TAF AMD
KACT 271858Z 2719/2818 36011KT P6SM FEW250
     FM280100 04007KT P6SM SCT250
     FM280600 12005KT P6SM SCT250
     FM281100 16005KT P6SM SCT120
     FM281500 19011KT P6SM SCT120=



000
FTUS44 KFWD 271720
TAFFTW
TAF
KFTW 271720Z 2718/2818 36014KT P6SM FEW015 SCT250
     FM272300 03007KT P6SM SCT250
     FM280500 10005KT P6SM SCT250
     FM281000 17007KT P6SM SCT120
     FM281400 19012KT P6SM SCT120=



000
FTUS44 KFWD 271720
TAFACT
TAF
KACT 271720Z 2718/2818 34016KT P6SM FEW250
     FM280100 04007KT P6SM SCT250
     FM280600 12005KT P6SM SCT250
     FM281100 16005KT P6SM SCT120
     FM281500 19011KT P6SM SCT120=



000
FTUS44 KFWD 271720
TAFDFW
TAF
KDFW 271720Z 2718/2824 35015KT P6SM FEW015 SCT250
     FM272300 03007KT P6SM SCT250
     FM280500 10005KT P6SM SCT250
     FM281000 17007KT P6SM SCT120
     FM281400 19012KT P6SM SCT120=



000
FTUS44 KFWD 271457 AAA
TAFDFW
TAF AMD
KDFW 271457Z 2715/2818 32009KT P6SM FEW250
     FM272300 03007KT P6SM SCT250
     FM280500 09006KT P6SM SCT250
     FM280900 15007KT P6SM SCT120=



000
FTUS44 KFWD 271457 AAA
TAFFTW
TAF AMD
KFTW 271457Z 2715/2812 33010KT P6SM FEW250
     FM272300 03007KT P6SM SCT250
     FM280500 09006KT P6SM SCT250
     FM280900 15007KT P6SM SCT120=



000
FTUS44 KFWD 271457 AAA
TAFACT
TAF AMD
KACT 271457Z 2715/2812 27007KT P6SM SKC
     FM271700 33013KT P6SM FEW250
     FM280100 04006KT P6SM SCT250
     FM280600 09006KT P6SM SCT250
     FM280900 15007KT P6SM SCT120=



000
FTUS44 KFWD 271457 AAA
TAFDFW
TAF AMD
KDFW 271457Z 2715/2818 32009KT P6SM FEW250
     FM272300 03007KT P6SM SCT250
     FM280500 09006KT P6SM SCT250
     FM280900 15007KT P6SM SCT120=



000
FTUS44 KFWD 271457 AAA
TAFFTW
TAF AMD
KFTW 271457Z 2715/2812 33010KT P6SM FEW250
     FM272300 03007KT P6SM SCT250
     FM280500 09006KT P6SM SCT250
     FM280900 15007KT P6SM SCT120=



000
FTUS44 KFWD 271457 AAA
TAFACT
TAF AMD
KACT 271457Z 2715/2812 27007KT P6SM SKC
     FM271700 33013KT P6SM FEW250
     FM280100 04006KT P6SM SCT250
     FM280600 09006KT P6SM SCT250
     FM280900 15007KT P6SM SCT120=



    US Dept of Commerce
    National Oceanic and Atmospheric Administration
    National Weather Service
    1325 East West Highway
    Silver Spring, MD 20910
    Page Author: NWS Internet Services Team
Disclaimer
Information Quality
Credits
Glossary
Privacy Policy
Freedom of Information Act (FOIA)
About Us
Career Opportunities